createdAt,value
2018-07-04T00:01:29.479Z,5.33
2018-07-04T00:04:16.127Z,5.07
2018-07-04T00:07:02.454Z,5.37
2018-07-04T00:09:48.707Z,6.73
2018-07-04T00:12:35.261Z,5.47
2018-07-04T00:15:21.509Z,5.60
2018-07-04T00:18:07.878Z,7.03
2018-07-04T00:20:54.407Z,5.83
2018-07-04T00:23:40.730Z,5.23
2018-07-04T00:26:27.137Z,4.90
2018-07-04T00:29:13.519Z,4.93
2018-07-04T00:31:59.938Z,6.47
2018-07-04T00:34:46.307Z,8.80
2018-07-04T00:37:32.774Z,6.83
2018-07-04T00:40:19.210Z,6.80
2018-07-04T00:43:05.766Z,6.43
2018-07-04T00:45:52.122Z,6.63
2018-07-04T00:48:38.552Z,5.73
2018-07-04T00:51:24.906Z,6.30
2018-07-04T00:54:11.233Z,6.30
2018-07-04T00:56:57.680Z,7.70
2018-07-04T00:59:44.409Z,6.97
2018-07-04T01:02:30.706Z,8.30
2018-07-04T01:05:17.309Z,7.67
2018-07-04T01:08:03.606Z,6.23
2018-07-04T01:10:50.074Z,5.67
2018-07-04T01:13:36.510Z,6.13
2018-07-04T01:16:23.035Z,8.90
2018-07-04T01:19:09.368Z,7.03
2018-07-04T01:21:55.661Z,5.93
2018-07-04T01:24:42.083Z,7.27
2018-07-04T01:27:28.355Z,8.97
2018-07-04T01:30:14.768Z,8.47
2018-07-04T01:33:01.114Z,6.23
2018-07-04T01:35:47.581Z,6.60
2018-07-04T01:38:34.009Z,8.03
2018-07-04T01:41:20.389Z,8.57
2018-07-04T01:44:06.640Z,6.03
2018-07-04T01:46:52.866Z,6.50
2018-07-04T01:49:39.196Z,6.40
2018-07-04T01:52:25.582Z,6.50
2018-07-04T01:55:12.026Z,6.63
2018-07-04T01:57:58.446Z,9.57
2018-07-04T02:00:44.940Z,7.43
2018-07-04T02:03:31.237Z,6.47
2018-07-04T02:06:17.635Z,6.80
2018-07-04T02:09:04.522Z,10.07
2018-07-04T02:11:50.802Z,6.67
2018-07-04T02:14:37.322Z,6.63
2018-07-04T02:17:23.683Z,8.83
2018-07-04T02:20:09.937Z,7.17
2018-07-04T02:22:56.407Z,7.07
2018-07-04T02:25:42.608Z,8.03
2018-07-04T02:28:28.812Z,7.43
2018-07-04T02:31:15.195Z,7.30
2018-07-04T02:34:01.641Z,7.27
2018-07-04T02:36:48.072Z,7.33
2018-07-04T02:39:34.602Z,7.97
2018-07-04T02:42:20.833Z,6.93
2018-07-04T02:45:07.272Z,9.00
2018-07-04T02:47:53.675Z,10.20
2018-07-04T02:50:40.051Z,8.57
2018-07-04T02:53:26.548Z,8.13
2018-07-04T02:56:12.994Z,8.97
2018-07-04T02:58:59.567Z,8.53
2018-07-04T03:01:45.835Z,9.63
2018-07-04T03:04:32.277Z,9.03
2018-07-04T03:07:18.527Z,7.83
2018-07-04T03:10:04.843Z,9.00
2018-07-04T03:12:51.265Z,7.53
2018-07-04T03:15:37.653Z,11.00
2018-07-04T03:18:24.147Z,9.13
2018-07-04T03:21:10.530Z,10.10
2018-07-04T03:23:57.077Z,8.53
2018-07-04T03:26:43.397Z,10.77
2018-07-04T03:29:29.735Z,8.53
2018-07-04T03:32:16.183Z,12.23
2018-07-04T03:35:03.024Z,9.90
2018-07-04T03:37:49.546Z,9.13
2018-07-04T03:40:35.936Z,8.60
2018-07-04T03:43:22.409Z,10.37
2018-07-04T03:46:08.932Z,11.27
2018-07-04T03:48:55.421Z,11.70
2018-07-04T03:51:41.902Z,10.33
2018-07-04T03:54:28.378Z,9.43
2018-07-04T03:57:14.894Z,8.23
2018-07-04T04:00:01.070Z,12.90
2018-07-04T04:02:47.667Z,10.57
2018-07-04T04:05:34.090Z,9.53
2018-07-04T04:08:20.334Z,11.50
2018-07-04T04:11:06.704Z,9.80
2018-07-04T04:13:53.486Z,11.30
2018-07-04T04:16:39.678Z,11.37
2018-07-04T04:19:31.330Z,11.77
2018-07-04T04:22:17.722Z,10.70
2018-07-04T04:25:03.992Z,11.63
2018-07-04T04:27:50.303Z,12.10
2018-07-04T04:30:36.766Z,12.67
2018-07-04T04:33:23.203Z,12.63
2018-07-04T04:36:09.704Z,12.00
2018-07-04T04:38:55.994Z,15.80
2018-07-04T04:41:42.233Z,14.60
2018-07-04T04:44:28.505Z,13.60
2018-07-04T04:47:14.826Z,14.63
2018-07-04T04:50:01.458Z,14.87
2018-07-04T04:52:47.687Z,15.93
2018-07-04T04:55:34.004Z,15.23
2018-07-04T04:58:20.538Z,15.73
2018-07-04T05:01:06.940Z,17.53
2018-07-04T05:03:53.238Z,13.97
2018-07-04T05:06:39.534Z,16.07
2018-07-04T05:09:25.880Z,17.00
2018-07-04T05:12:12.342Z,15.87
2018-07-04T05:14:58.998Z,15.77
2018-07-04T05:17:45.681Z,17.03
2018-07-04T05:20:31.995Z,17.53
2018-07-04T05:23:18.342Z,14.33
2018-07-04T05:26:05.078Z,13.60
2018-07-04T05:28:51.661Z,14.17
2018-07-04T05:31:38.142Z,19.27
2018-07-04T05:34:24.750Z,12.77
2018-07-04T05:37:10.945Z,13.63
2018-07-04T05:39:57.325Z,11.97
2018-07-04T05:42:43.789Z,12.20
2018-07-04T05:45:30.344Z,12.53
2018-07-04T05:48:16.818Z,14.67
2018-07-04T05:51:03.395Z,12.30
2018-07-04T05:53:49.906Z,9.87
2018-07-04T05:56:36.157Z,13.03
2018-07-04T05:59:22.623Z,11.20
2018-07-04T06:02:09.134Z,12.27
2018-07-04T06:04:55.831Z,9.77
2018-07-04T06:07:42.209Z,11.97
2018-07-04T06:10:28.688Z,13.23
2018-07-04T06:13:15.189Z,13.67
2018-07-04T06:16:01.597Z,11.00
2018-07-04T06:18:42.074Z,10.17
2018-07-04T06:21:28.564Z,11.60
2018-07-04T06:24:14.902Z,11.07
2018-07-04T06:27:01.170Z,10.43
2018-07-04T06:29:47.921Z,12.50
2018-07-04T06:32:34.287Z,11.90
2018-07-04T06:35:20.706Z,11.63
2018-07-04T06:37:54.763Z,9.30
2018-07-04T06:40:22.467Z,8.57
2018-07-04T06:42:50.183Z,10.47
2018-07-04T06:45:17.897Z,12.20
2018-07-04T06:47:45.602Z,10.47
2018-07-04T06:50:13.314Z,10.53
2018-07-04T06:52:41.018Z,11.97
2018-07-04T06:55:08.739Z,10.40
2018-07-04T06:57:36.438Z,9.23
2018-07-04T07:00:04.186Z,11.13
2018-07-04T07:02:31.918Z,10.73
2018-07-04T07:05:12.162Z,11.03
2018-07-04T07:07:58.462Z,8.10
2018-07-04T07:10:45.063Z,10.33
2018-07-04T07:13:31.478Z,12.00
2018-07-04T07:16:17.883Z,10.50
2018-07-04T07:19:04.083Z,14.47
2018-07-04T07:21:50.454Z,14.50
2018-07-04T07:24:36.858Z,8.57
2018-07-04T07:27:23.255Z,7.87
2018-07-04T07:30:09.560Z,11.20
2018-07-04T07:32:56.018Z,7.90
2018-07-04T07:35:42.515Z,8.33
2018-07-04T07:38:29.073Z,5.87
2018-07-04T07:41:15.479Z,9.50
2018-07-04T07:44:01.836Z,8.23
2018-07-04T07:46:48.398Z,10.40
2018-07-04T07:49:34.851Z,6.73
2018-07-04T07:52:21.473Z,10.30
2018-07-04T07:55:07.722Z,6.97
2018-07-04T07:57:54.498Z,6.97
2018-07-04T08:00:40.947Z,7.30
2018-07-04T08:03:27.181Z,7.57
2018-07-04T08:06:13.747Z,8.03
2018-07-04T08:09:00.047Z,6.90
2018-07-04T08:11:46.450Z,9.50
2018-07-04T08:14:32.735Z,8.50
2018-07-04T08:17:19.095Z,6.83
2018-07-04T08:20:05.653Z,8.80
2018-07-04T08:22:52.093Z,8.33
2018-07-04T08:25:38.421Z,6.80
2018-07-04T08:28:24.839Z,6.95
2018-07-04T08:31:11.248Z,7.50
2018-07-04T08:33:57.758Z,5.90
2018-07-04T08:36:44.218Z,6.47
2018-07-04T08:39:30.772Z,6.05
2018-07-04T08:42:17.311Z,7.15
2018-07-04T08:45:03.859Z,6.22
2018-07-04T08:47:50.367Z,7.00
2018-07-04T08:50:36.799Z,5.35
2018-07-04T08:53:23.515Z,9.18
2018-07-04T08:56:09.831Z,7.22
2018-07-04T08:58:56.214Z,4.00
2018-07-04T09:01:36.621Z,6.90
2018-07-04T09:04:22.974Z,5.85
2018-07-04T09:07:09.662Z,6.42
2018-07-04T09:09:56.126Z,7.05
2018-07-04T09:12:42.345Z,8.10
2018-07-04T09:15:28.848Z,8.23
2018-07-04T09:18:15.299Z,5.90
2018-07-04T09:21:01.878Z,5.35
2018-07-04T09:23:48.292Z,5.67
2018-07-04T09:26:34.887Z,7.10
2018-07-04T09:29:21.338Z,5.37
2018-07-04T09:32:08.019Z,5.28
2018-07-04T09:34:54.480Z,4.33
2018-07-04T09:37:40.730Z,5.83
2018-07-04T09:40:27.335Z,5.58
2018-07-04T09:43:13.614Z,4.55
2018-07-04T09:46:00.207Z,4.37
2018-07-04T09:48:46.595Z,7.47
2018-07-04T09:51:32.893Z,4.83
2018-07-04T09:54:19.413Z,5.95
2018-07-04T09:56:59.851Z,5.60
2018-07-04T09:59:46.194Z,5.90
2018-07-04T10:02:32.582Z,6.42
2018-07-04T10:05:19.027Z,4.40
2018-07-04T10:08:05.554Z,13.03
2018-07-04T10:10:52.111Z,6.42
2018-07-04T10:13:39.259Z,7.05
2018-07-04T10:16:25.722Z,3.95
2018-07-04T10:19:12.414Z,6.58
2018-07-04T10:21:58.570Z,13.38
2018-07-04T10:24:45.000Z,2.83
2018-07-04T10:27:31.680Z,6.65
2018-07-04T10:30:18.141Z,6.42
2018-07-04T10:33:04.626Z,7.12
2018-07-04T10:35:51.146Z,7.33
2018-07-04T10:38:38.095Z,5.95
2018-07-04T10:41:24.334Z,7.37
2018-07-04T10:44:10.654Z,5.60
2018-07-04T10:46:56.879Z,5.95
2018-07-04T10:49:43.689Z,3.85
2018-07-04T10:52:30.132Z,5.00
2018-07-04T10:55:16.558Z,5.95
2018-07-04T10:58:02.884Z,4.50
2018-07-04T11:00:49.346Z,5.20
2018-07-04T11:03:35.830Z,6.37
2018-07-04T11:06:22.126Z,5.00
2018-07-04T11:09:08.655Z,5.28
2018-07-04T11:11:55.311Z,5.95
2018-07-04T11:14:41.930Z,4.20
2018-07-04T11:17:28.213Z,5.00
2018-07-04T11:20:14.541Z,5.30
2018-07-04T11:23:01.404Z,6.90
2018-07-04T11:25:47.965Z,5.42
2018-07-04T11:28:34.736Z,6.50
2018-07-04T11:31:21.151Z,3.40
2018-07-04T11:34:07.543Z,6.03
2018-07-04T11:36:54.142Z,7.17
2018-07-04T11:39:42.096Z,3.27
2018-07-04T11:42:28.558Z,4.17
2018-07-04T11:45:14.802Z,6.08
2018-07-04T11:47:48.662Z,4.62
2018-07-04T11:50:16.366Z,4.62
2018-07-04T11:52:44.083Z,3.58
2018-07-04T11:55:11.830Z,7.25
2018-07-04T11:57:39.542Z,3.52
2018-07-04T12:00:08.594Z,3.25
2018-07-04T12:02:36.306Z,3.45
2018-07-04T12:05:16.423Z,4.15
2018-07-04T12:07:50.410Z,4.95
2018-07-04T12:10:18.103Z,5.62
2018-07-04T12:12:45.822Z,5.37
2018-07-04T12:15:13.927Z,4.45
2018-07-04T12:17:41.683Z,4.08
2018-07-04T12:20:09.375Z,3.20
2018-07-04T12:22:37.083Z,4.20
2018-07-04T12:25:04.782Z,4.37
2018-07-04T12:27:32.508Z,2.55
2018-07-04T12:30:00.214Z,5.80
2018-07-04T12:32:29.627Z,3.17
2018-07-04T12:34:57.494Z,7.35
2018-07-04T12:37:25.230Z,4.12
2018-07-04T12:39:52.991Z,4.47
2018-07-04T12:42:20.700Z,6.05
2018-07-04T12:44:48.425Z,4.12
2018-07-04T12:47:16.150Z,4.75
2018-07-04T12:49:43.844Z,5.28
2018-07-04T12:52:11.547Z,3.47
2018-07-04T12:54:45.268Z,4.60
2018-07-04T12:57:25.066Z,6.33
2018-07-04T13:00:11.547Z,3.72
2018-07-04T13:02:58.101Z,4.20
2018-07-04T13:05:44.899Z,4.50
2018-07-04T13:08:31.270Z,3.35
2018-07-04T13:11:17.782Z,5.17
2018-07-04T13:14:04.156Z,4.08
2018-07-04T13:16:50.792Z,4.42
2018-07-04T13:19:37.304Z,4.05
2018-07-04T13:22:23.769Z,4.72
2018-07-04T13:25:10.064Z,8.60
2018-07-04T13:27:56.372Z,6.50
2018-07-04T13:30:42.998Z,7.92
2018-07-04T13:33:29.327Z,11.35
2018-07-04T13:36:15.582Z,5.60
2018-07-04T13:39:02.056Z,5.90
2018-07-04T13:41:48.477Z,4.87
2018-07-04T13:44:34.881Z,7.53
2018-07-04T13:47:21.357Z,6.80
2018-07-04T13:50:08.187Z,11.83
2018-07-04T13:52:54.670Z,7.70
2018-07-04T13:55:41.105Z,7.67
2018-07-04T13:58:27.953Z,6.35
2018-07-04T14:01:15.088Z,7.72
2018-07-04T14:04:01.767Z,9.50
2018-07-04T14:06:41.985Z,5.20
2018-07-04T14:09:28.315Z,8.75
2018-07-04T14:12:14.670Z,5.58
2018-07-04T14:15:01.179Z,3.62
2018-07-04T14:17:47.735Z,4.55
2018-07-04T14:20:34.095Z,5.50
2018-07-04T14:23:20.566Z,4.67
2018-07-04T14:26:07.077Z,3.17
2018-07-04T14:28:53.398Z,3.95
2018-07-04T14:31:39.670Z,3.85
2018-07-04T14:34:26.280Z,5.97
2018-07-04T14:37:12.835Z,5.78
2018-07-04T14:39:59.261Z,3.05
2018-07-04T14:42:45.636Z,6.33
2018-07-04T14:45:32.015Z,4.62
2018-07-04T14:48:18.394Z,11.38
2018-07-04T14:51:04.863Z,11.85
2018-07-04T14:53:51.394Z,6.92
2018-07-04T14:56:37.548Z,5.15
2018-07-04T14:59:24.550Z,6.97
2018-07-04T15:02:10.920Z,2.98
2018-07-04T15:04:51.418Z,4.60
2018-07-04T15:07:37.778Z,5.08
2018-07-04T15:10:24.126Z,4.58
2018-07-04T15:13:10.622Z,3.10
2018-07-04T15:15:57.121Z,5.92
2018-07-04T15:18:43.482Z,3.02
2018-07-04T15:21:30.028Z,3.15
2018-07-04T15:24:16.365Z,11.73
2018-07-04T15:27:02.738Z,5.90
2018-07-04T15:29:49.039Z,5.15
2018-07-04T15:32:35.338Z,5.92
2018-07-04T15:35:15.718Z,3.70
2018-07-04T15:38:02.098Z,4.40
2018-07-04T15:40:48.394Z,2.62
2018-07-04T15:43:28.781Z,3.02
2018-07-04T15:46:15.158Z,7.30
2018-07-04T15:49:01.643Z,3.67
2018-07-04T15:51:48.289Z,6.10
2018-07-04T15:54:34.983Z,4.17
2018-07-04T15:57:21.338Z,4.37
2018-07-04T16:00:07.858Z,4.05
2018-07-04T16:02:54.651Z,4.25
2018-07-04T16:05:41.122Z,5.65
2018-07-04T16:08:27.598Z,4.42
2018-07-04T16:11:14.087Z,3.52
2018-07-04T16:14:00.593Z,10.80
2018-07-04T16:16:46.967Z,5.60
2018-07-04T16:19:33.472Z,7.60
2018-07-04T16:22:19.935Z,17.60
2018-07-04T16:25:06.548Z,10.98
2018-07-04T16:27:52.908Z,10.55
2018-07-04T16:30:39.415Z,7.40
2018-07-04T16:33:25.991Z,2.70
2018-07-04T16:36:12.911Z,5.08
2018-07-04T16:38:59.221Z,7.37
2018-07-04T16:41:45.649Z,3.90
2018-07-04T16:44:32.087Z,6.05
2018-07-04T16:47:18.570Z,6.55
2018-07-04T16:50:04.870Z,11.57
2018-07-04T16:52:51.310Z,3.80
2018-07-04T16:55:37.742Z,6.40
2018-07-04T16:58:24.062Z,4.95
2018-07-04T17:01:10.495Z,3.52
2018-07-04T17:03:56.690Z,6.22
2018-07-04T17:06:42.813Z,8.05
2018-07-04T17:09:29.359Z,11.43
2018-07-04T17:12:15.695Z,4.80
2018-07-04T17:15:02.105Z,4.65
2018-07-04T17:17:48.606Z,4.17
2018-07-04T17:20:34.931Z,5.78
2018-07-04T17:23:21.049Z,5.20
2018-07-04T17:26:07.530Z,3.40
2018-07-04T17:28:53.733Z,3.55
2018-07-04T17:31:40.239Z,3.50
2018-07-04T17:34:26.681Z,5.85
2018-07-04T17:37:13.118Z,4.83
2018-07-04T17:39:59.715Z,4.40
2018-07-04T17:42:46.195Z,4.85
2018-07-04T17:45:32.409Z,3.80
2018-07-04T17:48:18.888Z,5.45
2018-07-04T17:51:05.311Z,4.37
2018-07-04T17:53:51.504Z,4.12
2018-07-04T17:56:37.842Z,5.12
2018-07-04T17:59:24.153Z,4.97
2018-07-04T18:02:10.562Z,7.83
2018-07-04T18:04:57.017Z,6.87
2018-07-04T18:07:43.471Z,4.85
2018-07-04T18:10:29.905Z,3.42
2018-07-04T18:13:16.317Z,5.70
2018-07-04T18:16:02.829Z,7.05
2018-07-04T18:18:49.230Z,5.28
2018-07-04T18:21:35.882Z,6.70
2018-07-04T18:24:22.467Z,7.78
2018-07-04T18:27:08.682Z,5.85
2018-07-04T18:29:55.103Z,3.65
2018-07-04T18:32:41.384Z,5.15
2018-07-04T18:35:27.734Z,3.65
2018-07-04T18:38:14.202Z,6.55
2018-07-04T18:41:00.717Z,3.95
2018-07-04T18:43:47.175Z,6.00
2018-07-04T18:46:34.114Z,4.50
2018-07-04T18:49:20.503Z,6.75
2018-07-04T18:52:06.826Z,4.22
2018-07-04T18:54:53.258Z,5.97
2018-07-04T18:57:39.550Z,3.60
2018-07-04T19:00:25.859Z,5.72
2018-07-04T19:03:12.082Z,4.58
2018-07-04T19:05:58.590Z,3.95
2018-07-04T19:08:45.051Z,7.70
2018-07-04T19:11:31.461Z,5.05
2018-07-04T19:14:17.858Z,6.80
2018-07-04T19:17:04.170Z,7.08
2018-07-04T19:19:44.415Z,4.15
2018-07-04T19:22:30.871Z,5.37
2018-07-04T19:25:17.347Z,4.97
2018-07-04T19:27:57.523Z,5.37
2018-07-04T19:30:43.762Z,6.37
2018-07-04T19:33:30.080Z,8.38
2018-07-04T19:36:16.475Z,4.33
2018-07-04T19:39:03.012Z,3.95
2018-07-04T19:41:49.211Z,7.08
2018-07-04T19:44:35.368Z,6.03
2018-07-04T19:47:21.770Z,7.58
2018-07-04T19:50:08.775Z,6.80
2018-07-04T19:52:55.115Z,5.50
2018-07-04T19:55:41.646Z,6.22
2018-07-04T19:58:28.179Z,6.45
2018-07-04T20:01:14.626Z,5.30
2018-07-04T20:04:01.075Z,5.10
2018-07-04T20:06:47.554Z,5.47
2018-07-04T20:09:34.102Z,6.35
2018-07-04T20:12:21.037Z,7.70
2018-07-04T20:15:07.416Z,3.70
2018-07-04T20:17:53.718Z,6.77
2018-07-04T20:20:40.518Z,10.90
2018-07-04T20:23:26.931Z,6.47
2018-07-04T20:26:13.096Z,6.70
2018-07-04T20:28:59.568Z,7.37
2018-07-04T20:31:46.071Z,5.53
2018-07-04T20:34:32.597Z,5.80
2018-07-04T20:37:19.347Z,6.50
2018-07-04T20:40:05.831Z,5.13
2018-07-04T20:42:52.078Z,6.47
2018-07-04T20:45:38.326Z,4.77
2018-07-04T20:48:24.606Z,3.70
2018-07-04T20:51:10.886Z,7.70
2018-07-04T20:53:57.386Z,5.93
2018-07-04T20:56:43.882Z,4.63
2018-07-04T20:59:30.289Z,4.77
2018-07-04T21:02:16.746Z,8.73
2018-07-04T21:05:03.272Z,4.97
2018-07-04T21:07:49.721Z,4.23
2018-07-04T21:10:36.187Z,5.30
2018-07-04T21:13:22.700Z,4.87
2018-07-04T21:16:09.094Z,5.57
2018-07-04T21:18:55.603Z,5.10
2018-07-04T21:21:42.103Z,8.20
2018-07-04T21:24:28.590Z,6.80
2018-07-04T21:27:15.023Z,5.53
2018-07-04T21:30:01.507Z,6.60
2018-07-04T21:32:47.808Z,4.80
2018-07-04T21:35:34.083Z,4.33
2018-07-04T21:38:14.378Z,3.90
2018-07-04T21:41:00.726Z,5.40
2018-07-04T21:43:47.167Z,3.63
2018-07-04T21:46:33.745Z,5.47
2018-07-04T21:49:20.151Z,4.27
2018-07-04T21:52:06.767Z,3.97
2018-07-04T21:54:53.315Z,4.07
2018-07-04T21:57:39.661Z,7.03
2018-07-04T22:00:25.951Z,6.53
2018-07-04T22:03:12.562Z,8.63
2018-07-04T22:05:59.103Z,4.90
2018-07-04T22:08:45.451Z,8.17
2018-07-04T22:11:31.946Z,5.37
2018-07-04T22:14:18.483Z,4.77
2018-07-04T22:17:05.085Z,5.83
2018-07-04T22:19:51.414Z,5.03
2018-07-04T22:22:37.954Z,7.27
2018-07-04T22:25:24.475Z,3.67
2018-07-04T22:28:10.765Z,4.17
2018-07-04T22:30:57.105Z,5.37
2018-07-04T22:33:43.581Z,5.90
2018-07-04T22:36:30.042Z,5.70
2018-07-04T22:39:16.378Z,4.80
2018-07-04T22:42:02.666Z,3.97
2018-07-04T22:44:49.061Z,6.07
2018-07-04T22:47:35.358Z,8.53
2018-07-04T22:50:21.701Z,6.63
2018-07-04T22:53:08.143Z,7.60
2018-07-04T22:55:54.555Z,4.77
2018-07-04T22:58:40.909Z,6.93
2018-07-04T23:01:27.314Z,6.70
2018-07-04T23:04:13.912Z,5.93
2018-07-04T23:07:00.463Z,8.27
2018-07-04T23:09:46.871Z,5.13
2018-07-04T23:12:33.268Z,6.80
2018-07-04T23:15:19.596Z,6.53
2018-07-04T23:18:06.250Z,7.30
2018-07-04T23:20:52.583Z,7.40
2018-07-04T23:23:38.867Z,6.23
2018-07-04T23:26:25.377Z,4.60
2018-07-04T23:29:11.858Z,7.20
2018-07-04T23:31:58.261Z,4.93
2018-07-04T23:34:44.863Z,4.80
2018-07-04T23:37:31.398Z,4.63
2018-07-04T23:40:17.867Z,4.73
2018-07-04T23:43:04.199Z,5.50
2018-07-04T23:45:50.666Z,4.37
2018-07-04T23:48:37.082Z,7.33
2018-07-04T23:51:23.646Z,4.80
2018-07-04T23:54:10.191Z,4.93
2018-07-04T23:56:56.492Z,6.60
2018-07-04T23:59:42.924Z,6.27
